Terminal Aerodrome Forecast
Issued by NWS Newport/Morehead City, NC

Home | Current Version | Previous Version | Text Only | Print | Product List | Glossary On
Versions: 1 2 3 4 5 6 7 8 9 10 11 12 13 14 15 16
000
FTUS42 KMHX 030500
TAFEWN
TAF
KEWN 030537Z 0306/0406 21005KT P6SM SCT050 SCT200
     FM031700 20008KT P6SM VCTS BKN045CB BKN080
     FM040000 21002KT 6SM BR BKN100=

USA.gov is the U.S. government's official web portal to all federal, state and local government web resources and services.